| time (UTC) | temp C | wind direction | speed KPH | gust KPH | rain 1hr cm | rain 24hr cm | rain mn cm | humidity % | barometer mb |
| 20260505184041 | 22 | 360 | 16.1 | 29.0 | 0.00 | 0.00 | 0.00 | 35 | 1012.1 |
| 20260505183540 | 22 | 360 | 19.3 | 29.0 | 0.00 | 0.00 | 0.00 | 36 | 1012.2 |
| 20260505183054 | 21 | 340 | 12.9 | 27.4 | 0.00 | 0.00 | 0.00 | 40 | 1012.2 |
| 20260505182542 | 21 | 321 | 19.3 | 27.4 | 0.00 | 0.00 | 0.00 | 38 | 1012.1 |
| 20260505182046 | 21 | 337 | 16.1 | 27.4 | 0.00 | 0.00 | 0.00 | 37 | 1012.1 |
| 20260505181555 | 21 | 317 | 17.7 | 27.4 | 0.00 | 0.00 | 0.00 | 40 | 1012.1 |
| 20260505181042 | 21 | 315 | 14.5 | 24.1 | 0.00 | 0.00 | 0.00 | 41 | 1012.1 |
| 20260505180542 | 22 | 20 | 12.9 | 24.1 | 0.00 | 0.00 | 0.00 | 34 | 1012.1 |
| 20260505180057 | 21 | 20 | 12.9 | 24.1 | 0.00 | 0.00 | 0.00 | 42 | 1012.2 |
| 20260505175543 | 21 | 10 | 16.1 | 22.5 | 0.00 | 0.00 | 0.00 | 37 | 1012.2 |
| 20260505175043 | 21 | 5 | 14.5 | 22.5 | 0.00 | 0.00 | 0.00 | 43 | 1012.2 |
| 20260505174552 | 21 | 317 | 14.5 | 22.5 | 0.00 | 0.00 | 0.00 | 43 | 1012.2 |
| 20260505174041 | 21 | 327 | 14.5 | 24.1 | 0.00 | 0.00 | 0.00 | 44 | 1012.2 |
| 20260505173541 | 21 | 346 | 14.5 | 25.7 | 0.00 | 0.00 | 0.00 | 45 | 1012.1 |
| 20260505173112 | 21 | 360 | 16.1 | 25.7 | 0.00 | 0.00 | 0.00 | 42 | 1012.2 |
| 20260505172542 | 21 | 312 | 12.9 | 25.7 | 0.00 | 0.00 | 0.00 | 42 | 1012.2 |
| 20260505172042 | 20 | 336 | 14.5 | 25.7 | 0.00 | 0.00 | 0.00 | 41 | 1012.1 |
| 20260505171608 | 21 | 61 | 16.1 | 24.1 | 0.00 | 0.00 | 0.00 | 44 | 1012.1 |
| 20260505171044 | 21 | 337 | 16.1 | 24.1 | 0.00 | 0.00 | 0.00 | 39 | 1012.2 |
| 20260505170542 | 20 | 348 | 14.5 | 24.1 | 0.00 | 0.00 | 0.00 | 46 | 1012.1 |
| 20260505170050 | 20 | 5 | 14.5 | 24.1 | 0.00 | 0.00 | 0.00 | 39 | 1012.1 |
| 20260505165542 | 20 | 348 | 16.1 | 24.1 | 0.00 | 0.00 | 0.00 | 45 | 1012.1 |
| 20260505165042 | 20 | 11 | 12.9 | 22.5 | 0.00 | 0.00 | 0.00 | 46 | 1012.0 |
| 20260505164552 | 20 | 31 | 14.5 | 25.7 | 0.00 | 0.00 | 0.00 | 47 | 1012.1 |
| 20260505164043 | 20 | 51 | 14.5 | 25.7 | 0.00 | 0.00 | 0.00 | 48 | 1012.0 |
| 20260505163543 | 20 | 55 | 14.5 | 22.5 | 0.00 | 0.00 | 0.00 | 47 | 1012.0 |
| 20260505163053 | 20 | 13 | 12.9 | 20.9 | 0.00 | 0.00 | 0.00 | 50 | 1012.0 |
| 20260505162542 | 19 | 35 | 12.9 | 25.7 | 0.00 | 0.00 | 0.00 | 49 | 1012.0 |
| 20260505162042 | 19 | 344 | 14.5 | 25.7 | 0.00 | 0.00 | 0.00 | 49 | 1012.0 |
| 20260505161556 | 19 | 17 | 16.1 | 22.5 | 0.00 | 0.00 | 0.00 | 49 | 1012.0 |
| 20260505161042 | 19 | 313 | 17.7 | 24.1 | 0.00 | 0.00 | 0.00 | 50 | 1011.9 |
| 20260505160544 | 19 | 311 | 16.1 | 25.7 | 0.00 | 0.00 | 0.00 | 47 | 1011.9 |
| 20260505153051 | 18 | 13 | 16.1 | 25.7 | 0.00 | 0.00 | 0.00 | 53 | 1011.8 |
| 20260505152542 | 17 | 344 | 16.1 | 22.5 | 0.00 | 0.00 | 0.00 | 54 | 1011.8 |
| 20260505152043 | 17 | 15 | 16.1 | 25.7 | 0.00 | 0.00 | 0.00 | 55 | 1011.7 |
| 20260505151553 | 17 | 331 | 16.1 | 25.7 | 0.00 | 0.00 | 0.00 | 55 | 1011.7 |
| 20260505151045 | 17 | 12 | 16.1 | 24.1 | 0.00 | 0.00 | 0.00 | 56 | 1011.6 |
| 20260505150542 | 17 | 346 | 14.5 | 24.1 | 0.00 | 0.00 | 0.00 | 57 | 1011.6 |
| 20260505150108 | 16 | 344 | 17.7 | 25.7 | 0.00 | 0.00 | 0.00 | 57 | 1011.6 |
| 20260505140542 | 14 | 350 | 14.5 | 24.1 | 0.00 | 0.00 | 0.00 | 59 | 1011.3 |
| 20260505124600 | 11 | 360 | 11.3 | 17.7 | 0.00 | 0.00 | 0.00 | 65 | 1010.7 |
| 20260505124047 | 11 | 344 | 11.3 | 17.7 | 0.00 | 0.00 | 0.00 | 65 | 1010.7 |
| 20260505123542 | 11 | 10 | 11.3 | 17.7 | 0.00 | 0.00 | 0.00 | 66 | 1010.6 |
| 20260505123104 | 11 | 5 | 11.3 | 16.1 | 0.00 | 0.00 | 0.00 | 66 | 1010.6 |
| 20260505122542 | 11 | 350 | 12.9 | 17.7 | 0.00 | 0.00 | 0.00 | 66 | 1010.6 |
| 20260505122046 | 11 | 5 | 12.9 | 17.7 | 0.00 | 0.00 | 0.00 | 66 | 1010.5 |
| 20260505121624 | 11 | 5 | 11.3 | 16.1 | 0.00 | 0.00 | 0.00 | 65 | 1010.4 |
| 20260505121044 | 11 | 11 | 11.3 | 19.3 | 0.00 | 0.00 | 0.00 | 65 | 1010.4 |
| 20260505120540 | 11 | 15 | 11.3 | 19.3 | 0.00 | 0.00 | 0.00 | 65 | 1010.4 |
| 20260505120051 | 11 | 360 | 12.9 | 19.3 | 0.00 | 0.00 | 0.00 | 65 | 1010.3 |
| 20260505115541 | 11 | 5 | 12.9 | 19.3 | 0.00 | 0.00 | 0.00 | 65 | 1010.2 |
| 20260505115042 | 11 | 5 | 11.3 | 19.3 | 0.00 | 0.00 | 0.00 | 65 | 1010.2 |
| 20260505114551 | 11 | 22 | 12.9 | 19.3 | 0.00 | 0.00 | 0.00 | 64 | 1010.2 |
| 20260505114044 | 11 | 10 | 12.9 | 20.9 | 0.00 | 0.00 | 0.00 | 64 | 1010.2 |
| 20260505113544 | 12 | 12 | 12.9 | 22.5 | 0.00 | 0.00 | 0.00 | 63 | 1010.1 |
| 20260505113055 | 12 | 340 | 12.9 | 22.5 | 0.00 | 0.00 | 0.00 | 63 | 1010.2 |
| 20260505112540 | 12 | 347 | 12.9 | 19.3 | 0.00 | 0.00 | 0.00 | 63 | 1010.1 |
| 20260505112043 | 12 | 348 | 12.9 | 19.3 | 0.00 | 0.00 | 0.00 | 63 | 1010.1 |
| 20260505111553 | 12 | 327 | 12.9 | 19.3 | 0.00 | 0.00 | 0.00 | 63 | 1010.1 |
| 20260505111046 | 12 | 349 | 12.9 | 19.3 | 0.00 | 0.00 | 0.00 | 63 | 1010.1 |
| 20260505110542 | 12 | 348 | 11.3 | 16.1 | 0.00 | 0.00 | 0.00 | 63 | 1010.0 |
| 20260505102041 | 8 | 17 | 6.4 | 11.3 | 0.00 | 0.00 | 0.00 | 78 | 1009.8 |
| 20260505101550 | 6 | 15 | 0.0 | 6.4 | 0.00 | 0.00 | 0.00 | 84 | 1009.8 |
| 20260505101042 | 6 | 0 | 0.0 | 4.8 | 0.00 | 0.00 | 0.00 | 83 | 1009.9 |
| 20260505100541 | 6 | 195 | 0.0 | 6.4 | 0.00 | 0.00 | 0.00 | 82 | 1009.9 |
| 20260505100150 | 6 | 0 | 1.6 | 6.4 | 0.00 | 0.00 | 0.00 | 84 | 1009.8 |
| 20260505095546 | 6 | 147 | 1.6 | 4.8 | 0.00 | 0.00 | 0.00 | 82 | 1009.7 |
| 20260505095046 | 6 | 143 | 1.6 | 4.8 | 0.00 | 0.00 | 0.00 | 84 | 1009.8 |
| 20260505094550 | 6 | 136 | 1.6 | 3.2 | 0.00 | 0.00 | 0.00 | 84 | 1009.7 |
| 20260505094042 | 6 | 136 | 1.6 | 3.2 | 0.00 | 0.00 | 0.00 | 82 | 1009.7 |
| 20260505093543 | 6 | 134 | 1.6 | 4.8 | 0.00 | 0.00 | 0.00 | 80 | 1009.7 |
| 20260505093052 | 6 | 138 | 1.6 | 6.4 | 0.00 | 0.00 | 0.00 | 80 | 1009.7 |
| 20260505092545 | 8 | 126 | 3.2 | 9.7 | 0.00 | 0.00 | 0.00 | 69 | 1009.7 |
| 20260505092042 | 13 | 115 | 3.2 | 9.7 | 0.00 | 0.00 | 0.00 | 58 | 1009.7 |
| 20260505091612 | 13 | 326 | 6.4 | 14.5 | 0.00 | 0.00 | 0.00 | 58 | 1009.7 |
| 20260505091042 | 14 | 328 | 6.4 | 14.5 | 0.00 | 0.00 | 0.00 | 59 | 1009.7 |
| 20260505090542 | 14 | 315 | 9.7 | 14.5 | 0.00 | 0.00 | 0.00 | 57 | 1009.7 |
| 20260505090059 | 14 | 315 | 8.0 | 14.5 | 0.00 | 0.00 | 0.00 | 58 | 1009.7 |
| 20260505085545 | 14 | 317 | 6.4 | 14.5 | 0.00 | 0.00 | 0.00 | 58 | 1009.7 |
| 20260505085041 | 14 | 331 | 8.0 | 12.9 | 0.00 | 0.00 | 0.00 | 57 | 1009.8 |
| 20260505084549 | 13 | 338 | 6.4 | 14.5 | 0.00 | 0.00 | 0.00 | 59 | 1009.7 |
| 20260505084044 | 13 | 338 | 8.0 | 14.5 | 0.00 | 0.00 | 0.00 | 58 | 1009.7 |
| 20260505083544 | 13 | 341 | 6.4 | 12.9 | 0.00 | 0.00 | 0.00 | 58 | 1009.8 |
| 20260505083054 | 14 | 338 | 6.4 | 12.9 | 0.00 | 0.00 | 0.00 | 58 | 1009.8 |
| 20260505082543 | 13 | 338 | 4.8 | 14.5 | 0.00 | 0.00 | 0.00 | 58 | 1009.8 |
| 20260505082042 | 14 | 337 | 8.0 | 14.5 | 0.00 | 0.00 | 0.00 | 57 | 1009.7 |
| 20260505081550 | 14 | 311 | 8.0 | 14.5 | 0.00 | 0.00 | 0.00 | 56 | 1009.8 |
| 20260505081044 | 14 | 323 | 6.4 | 12.9 | 0.00 | 0.00 | 0.00 | 57 | 1009.8 |
| 20260505080543 | 14 | 322 | 8.0 | 17.7 | 0.00 | 0.00 | 0.00 | 57 | 1009.9 |
| 20260505080053 | 15 | 329 | 12.9 | 17.7 | 0.00 | 0.00 | 0.00 | 52 | 1009.9 |
| 20260505075543 | 15 | 324 | 9.7 | 16.1 | 0.00 | 0.00 | 0.00 | 56 | 1009.8 |
| 20260505075043 | 15 | 342 | 9.7 | 17.7 | 0.00 | 0.00 | 0.00 | 51 | 1009.9 |
| 20260505074552 | 15 | 347 | 9.7 | 19.3 | 0.00 | 0.00 | 0.00 | 55 | 1009.8 |
| 20260505074045 | 15 | 335 | 11.3 | 22.5 | 0.00 | 0.00 | 0.00 | 55 | 1009.9 |
| 20260505073541 | 15 | 324 | 12.9 | 22.5 | 0.00 | 0.00 | 0.00 | 55 | 1009.8 |
| 20260505073059 | 15 | 350 | 14.5 | 22.5 | 0.00 | 0.00 | 0.00 | 54 | 1009.8 |
| 20260505072545 | 14 | 336 | 11.3 | 17.7 | 0.00 | 0.00 | 0.00 | 57 | 1009.8 |
| 20260505072045 | 13 | 350 | 6.4 | 14.5 | 0.00 | 0.00 | 0.00 | 56 | 1009.8 |
| 20260505071552 | 14 | 9 | 9.7 | 14.5 | 0.00 | 0.00 | 0.00 | 55 | 1009.8 |
| 20260505071042 | 15 | 13 | 8.0 | 14.5 | 0.00 | 0.00 | 0.00 | 53 | 1009.7 |
| 20260505070541 | 15 | 348 | 9.7 | 14.5 | 0.00 | 0.00 | 0.00 | 49 | 1009.7 |
| 20260505070058 | 13 | 328 | 8.0 | 14.5 | 0.00 | 0.00 | 0.00 | 58 | 1009.7 |
| 20260505065541 | 13 | 350 | 6.4 | 14.5 | 0.00 | 0.00 | 0.00 | 58 | 1009.6 |
| 20260505065042 | 13 | 13 | 9.7 | 14.5 | 0.00 | 0.00 | 0.00 | 58 | 1009.6 |
| 20260505064555 | 13 | 5 | 8.0 | 12.9 | 0.00 | 0.00 | 0.00 | 58 | 1009.7 |
| 20260505064043 | 13 | 9 | 8.0 | 14.5 | 0.00 | 0.00 | 0.00 | 58 | 1009.6 |
| 20260505063544 | 13 | 5 | 9.7 | 14.5 | 0.00 | 0.00 | 0.00 | 58 | 1009.5 |
| 20260505063054 | 13 | 5 | 6.4 | 12.9 | 0.00 | 0.00 | 0.00 | 58 | 1009.6 |
| 20260505062544 | 12 | 360 | 6.4 | 12.9 | 0.00 | 0.00 | 0.00 | 59 | 1009.6 |
| 20260505062041 | 12 | 15 | 6.4 | 12.9 | 0.00 | 0.00 | 0.00 | 59 | 1009.5 |
| 20260505061601 | 12 | 9 | 8.0 | 12.9 | 0.00 | 0.00 | 0.00 | 59 | 1009.6 |
| 20260505061043 | 12 | 5 | 9.7 | 12.9 | 0.00 | 0.00 | 0.00 | 58 | 1009.6 |
| 20260505060546 | 13 | 22 | 9.7 | 12.9 | 0.00 | 0.00 | 0.00 | 55 | 1009.6 |
| 20260505060056 | 14 | 26 | 8.0 | 14.5 | 0.00 | 0.00 | 0.00 | 48 | 1009.5 |
| 20260505055540 | 15 | 344 | 8.0 | 16.1 | 0.00 | 0.00 | 0.00 | 51 | 1009.5 |
| 20260505055044 | 15 | 326 | 9.7 | 19.3 | 0.00 | 0.00 | 0.00 | 52 | 1009.5 |
| 20260505054617 | 15 | 315 | 11.3 | 19.3 | 0.00 | 0.00 | 0.00 | 52 | 1009.4 |
| 20260505054040 | 15 | 338 | 12.9 | 19.3 | 0.00 | 0.00 | 0.00 | 51 | 1009.4 |
| 20260505053545 | 15 | 316 | 12.9 | 20.9 | 0.00 | 0.00 | 0.00 | 51 | 1009.4 |
| 20260505053053 | 15 | 317 | 12.9 | 22.5 | 0.00 | 0.00 | 0.00 | 51 | 1009.4 |
| 20260505052546 | 15 | 320 | 14.5 | 22.5 | 0.00 | 0.00 | 0.00 | 51 | 1009.4 |
| 20260505052043 | 15 | 314 | 16.1 | 22.5 | 0.00 | 0.00 | 0.00 | 51 | 1009.4 |
| 20260505051551 | 15 | 326 | 14.5 | 22.5 | 0.00 | 0.00 | 0.00 | 51 | 1009.4 |
| 20260505051041 | 15 | 323 | 12.9 | 17.7 | 0.00 | 0.00 | 0.00 | 52 | 1009.5 |
| 20260505050543 | 14 | 314 | 9.7 | 16.1 | 0.00 | 0.00 | 0.00 | 49 | 1009.6 |
| 20260505041606 | 16 | 343 | 8.0 | 22.5 | 0.00 | 0.00 | 0.00 | 44 | 1009.3 |
| 20260505041045 | 16 | 326 | 11.3 | 24.1 | 0.00 | 0.00 | 0.00 | 44 | 1009.2 |
| 20260505040546 | 17 | 360 | 11.3 | 24.1 | 0.00 | 0.00 | 0.00 | 44 | 1009.1 |
| 20260505035544 | 17 | 323 | 16.1 | 24.1 | 0.00 | 0.00 | 0.00 | 44 | 1008.9 |
| 20260505035045 | 17 | 338 | 16.1 | 24.1 | 0.00 | 0.00 | 0.00 | 44 | 1008.7 |
| 20260505034557 | 17 | 331 | 14.5 | 22.5 | 0.00 | 0.00 | 0.00 | 43 | 1008.7 |
| 20260505034046 | 17 | 327 | 12.9 | 24.1 | 0.00 | 0.00 | 0.00 | 43 | 1008.5 |
| 20260505033546 | 17 | 309 | 11.3 | 24.1 | 0.00 | 0.00 | 0.00 | 42 | 1008.5 |
| 20260505033053 | 17 | 344 | 12.9 | 22.5 | 0.00 | 0.00 | 0.00 | 40 | 1008.5 |
| 20260505032544 | 18 | 322 | 16.1 | 24.1 | 0.00 | 0.00 | 0.00 | 40 | 1008.4 |
| 20260505032047 | 18 | 331 | 16.1 | 24.1 | 0.00 | 0.00 | 0.00 | 40 | 1008.3 |
| 20260505031604 | 18 | 323 | 17.7 | 24.1 | 0.00 | 0.00 | 0.00 | 40 | 1008.2 |
| 20260505031045 | 18 | 317 | 16.1 | 25.7 | 0.00 | 0.00 | 0.00 | 40 | 1008.1 |
| 20260505030546 | 18 | 321 | 16.1 | 25.7 | 0.00 | 0.00 | 0.00 | 39 | 1008.1 |
| 20260505030104 | 18 | 317 | 16.1 | 25.7 | 0.00 | 0.00 | 0.00 | 40 | 1008.1 |
| 20260505025546 | 18 | 328 | 17.7 | 25.7 | 0.00 | 0.00 | 0.00 | 39 | 1008.0 |
| 20260505025044 | 18 | 328 | 16.1 | 27.4 | 0.00 | 0.00 | 0.00 | 40 | 1008.0 |
| 20260505024602 | 19 | 330 | 17.7 | 29.0 | 0.00 | 0.00 | 0.00 | 39 | 1007.9 |
| 20260505024045 | 19 | 297 | 19.3 | 29.0 | 0.00 | 0.00 | 0.00 | 34 | 1007.9 |
| 20260505023545 | 19 | 294 | 16.1 | 25.7 | 0.00 | 0.00 | 0.00 | 38 | 1007.9 |
| 20260505023059 | 20 | 304 | 17.7 | 25.7 | 0.00 | 0.00 | 0.00 | 38 | 1007.9 |
| 20260505022546 | 20 | 312 | 17.7 | 25.7 | 0.00 | 0.00 | 0.00 | 38 | 1007.8 |
| 20260505022045 | 20 | 288 | 17.7 | 29.0 | 0.00 | 0.00 | 0.00 | 37 | 1007.8 |
| 20260505021558 | 20 | 319 | 16.1 | 29.0 | 0.00 | 0.00 | 0.00 | 36 | 1007.8 |
| 20260505021044 | 21 | 319 | 17.7 | 32.2 | 0.00 | 0.00 | 0.00 | 36 | 1007.7 |
| 20260505020545 | 21 | 291 | 19.3 | 32.2 | 0.00 | 0.00 | 0.00 | 36 | 1007.6 |
| 20260505015545 | 21 | 311 | 16.1 | 25.7 | 0.00 | 0.00 | 0.00 | 37 | 1007.6 |
| 20260505015049 | 21 | 302 | 17.7 | 25.7 | 0.00 | 0.00 | 0.00 | 37 | 1007.6 |
| 20260505014553 | 21 | 310 | 16.1 | 24.1 | 0.00 | 0.00 | 0.00 | 36 | 1007.7 |
| 20260505014045 | 21 | 287 | 14.5 | 25.7 | 0.00 | 0.00 | 0.00 | 35 | 1007.6 |
| 20260505013551 | 21 | 298 | 17.7 | 25.7 | 0.00 | 0.00 | 0.00 | 29 | 1007.7 |
| 20260505013050 | 21 | 325 | 16.1 | 29.0 | 0.00 | 0.00 | 0.00 | 35 | 1007.7 |
| 20260505012544 | 21 | 316 | 17.7 | 30.6 | 0.00 | 0.00 | 0.00 | 37 | 1007.7 |
| 20260505012046 | 22 | 303 | 20.9 | 30.6 | 0.00 | 0.00 | 0.00 | 35 | 1007.8 |
| 20260505011551 | 22 | 297 | 16.1 | 32.2 | 0.00 | 0.00 | 0.00 | 35 | 1007.9 |
| 20260505011044 | 22 | 346 | 20.9 | 41.8 | 0.00 | 0.00 | 0.00 | 34 | 1007.7 |
| 20260505010546 | 22 | 300 | 20.9 | 41.8 | 0.00 | 0.00 | 0.00 | 35 | 1007.9 |
| 20260505010107 | 22 | 311 | 19.3 | 30.6 | 0.00 | 0.00 | 0.00 | 35 | 1007.9 |
| 20260505005545 | 22 | 338 | 17.7 | 33.8 | 0.00 | 0.00 | 0.00 | 33 | 1007.9 |
| 20260505005046 | 22 | 300 | 22.5 | 33.8 | 0.00 | 0.00 | 0.00 | 30 | 1007.9 |
| 20260505004552 | 22 | 321 | 19.3 | 30.6 | 0.00 | 0.00 | 0.00 | 35 | 1007.9 |
| 20260505004045 | 23 | 317 | 22.5 | 30.6 | 0.00 | 0.00 | 0.00 | 29 | 1007.9 |
| 20260505003545 | 23 | 329 | 20.9 | 30.6 | 0.00 | 0.00 | 0.00 | 32 | 1007.9 |
| 20260505003055 | 23 | 340 | 17.7 | 33.8 | 0.00 | 0.00 | 0.00 | 34 | 1007.9 |
| 20260505002546 | 23 | 310 | 20.9 | 33.8 | 0.00 | 0.00 | 0.00 | 31 | 1007.9 |
| 20260505002046 | 23 | 336 | 20.9 | 32.2 | 0.00 | 0.00 | 0.00 | 31 | 1007.9 |
| 20260505001553 | 23 | 327 | 22.5 | 37.0 | 0.00 | 0.00 | 0.00 | 30 | 1007.8 |
| 20260505001047 | 23 | 346 | 19.3 | 37.0 | 0.00 | 0.00 | 0.00 | 31 | 1007.9 |
| 20260505000545 | 23 | 325 | 22.5 | 37.0 | 0.00 | 0.00 | 0.00 | 30 | 1007.9 |
| 20260505000100 | 23 | 320 | 20.9 | 35.4 | 0.00 | 0.00 | 0.00 | 30 | 1007.9 |
| 20260504235547 | 23 | 336 | 20.9 | 35.4 | 0.00 | 0.00 | 0.00 | 29 | 1007.9 |
| 20260504235046 | 23 | 323 | 19.3 | 32.2 | 0.00 | 0.00 | 0.00 | 30 | 1007.9 |
| 20260504234551 | 23 | 329 | 20.9 | 33.8 | 0.00 | 0.00 | 0.00 | 24 | 1008.1 |
| 20260504234045 | 23 | 340 | 19.3 | 40.2 | 0.00 | 0.00 | 0.00 | 28 | 1008.0 |
| 20260504233548 | 23 | 337 | 22.5 | 40.2 | 0.00 | 0.00 | 0.00 | 28 | 1008.0 |
| 20260504233054 | 23 | 318 | 20.9 | 33.8 | 0.00 | 0.00 | 0.00 | 27 | 1008.0 |
| 20260504232546 | 23 | 330 | 20.9 | 37.0 | 0.00 | 0.00 | 0.00 | 27 | 1008.1 |
| 20260504232044 | 24 | 325 | 22.5 | 37.0 | 0.00 | 0.00 | 0.00 | 28 | 1008.1 |
| 20260504231552 | 25 | 10 | 19.3 | 33.8 | 0.00 | 0.00 | 0.00 | 28 | 1008.1 |
| 20260504231045 | 25 | 317 | 19.3 | 33.8 | 0.00 | 0.00 | 0.00 | 29 | 1008.1 |
| 20260504230545 | 24 | 5 | 20.9 | 35.4 | 0.00 | 0.00 | 0.00 | 28 | 1008.2 |
| 20260504230110 | 24 | 10 | 22.5 | 35.4 | 0.00 | 0.00 | 0.00 | 23 | 1008.2 |
| 20260504225548 | 24 | 340 | 20.9 | 35.4 | 0.00 | 0.00 | 0.00 | 27 | 1008.2 |
| 20260504225047 | 24 | 317 | 19.3 | 37.0 | 0.00 | 0.00 | 0.00 | 25 | 1008.3 |
| 20260504224601 | 25 | 321 | 20.9 | 37.0 | 0.00 | 0.00 | 0.00 | 28 | 1008.3 |
| 20260504224045 | 25 | 5 | 19.3 | 33.8 | 0.00 | 0.00 | 0.00 | 28 | 1008.4 |
| 20260504223544 | 25 | 319 | 19.3 | 30.6 | 0.00 | 0.00 | 0.00 | 28 | 1008.4 |
| 20260504223054 | 24 | 24 | 20.9 | 30.6 | 0.00 | 0.00 | 0.00 | 30 | 1008.5 |
| 20260504222545 | 25 | 307 | 19.3 | 37.0 | 0.00 | 0.00 | 0.00 | 33 | 1008.6 |
| 20260504222043 | 25 | 336 | 19.3 | 37.0 | 0.00 | 0.00 | 0.00 | 30 | 1008.5 |
| 20260504221552 | 25 | 308 | 19.3 | 35.4 | 0.00 | 0.00 | 0.00 | 31 | 1008.6 |
| 20260504221045 | 25 | 338 | 19.3 | 33.8 | 0.00 | 0.00 | 0.00 | 33 | 1008.6 |
| 20260504220545 | 25 | 333 | 17.7 | 32.2 | 0.00 | 0.00 | 0.00 | 31 | 1008.7 |
| 20260504215544 | 25 | 338 | 24.1 | 40.2 | 0.00 | 0.00 | 0.00 | 29 | 1008.8 |
| 20260504215045 | 25 | 329 | 17.7 | 33.8 | 0.00 | 0.00 | 0.00 | 30 | 1008.8 |
| 20260504214555 | 25 | 328 | 19.3 | 35.4 | 0.00 | 0.00 | 0.00 | 30 | 1008.7 |
| 20260504214045 | 25 | 320 | 20.9 | 35.4 | 0.00 | 0.00 | 0.00 | 30 | 1008.9 |
| 20260504213545 | 25 | 335 | 19.3 | 35.4 | 0.00 | 0.00 | 0.00 | 30 | 1008.7 |
| 20260504213101 | 25 | 11 | 22.5 | 33.8 | 0.00 | 0.00 | 0.00 | 30 | 1008.8 |
| 20260504212545 | 24 | 322 | 19.3 | 38.6 | 0.00 | 0.00 | 0.00 | 31 | 1008.8 |
| 20260504212045 | 25 | 311 | 20.9 | 38.6 | 0.00 | 0.00 | 0.00 | 32 | 1008.9 |
| 20260504211559 | 25 | 311 | 22.5 | 35.4 | 0.00 | 0.00 | 0.00 | 30 | 1008.9 |
| 20260504211043 | 25 | 318 | 22.5 | 35.4 | 0.00 | 0.00 | 0.00 | 27 | 1008.9 |
| 20260504210548 | 25 | 319 | 20.9 | 33.8 | 0.00 | 0.00 | 0.00 | 30 | 1009.0 |
| 20260504205546 | 25 | 335 | 22.5 | 33.8 | 0.00 | 0.00 | 0.00 | 31 | 1009.0 |
| 20260504205045 | 25 | 12 | 20.9 | 38.6 | 0.00 | 0.00 | 0.00 | 28 | 1009.0 |
| 20260504204559 | 24 | 319 | 24.1 | 38.6 | 0.00 | 0.00 | 0.00 | 30 | 1009.1 |
| 20260504204045 | 24 | 360 | 20.9 | 37.0 | 0.00 | 0.00 | 0.00 | 31 | 1009.1 |
| 20260504203545 | 25 | 336 | 25.7 | 38.6 | 0.00 | 0.00 | 0.00 | 30 | 1009.2 |
| 20260504203054 | 25 | 23 | 17.7 | 38.6 | 0.00 | 0.00 | 0.00 | 31 | 1009.0 |
| 20260504202545 | 25 | 360 | 16.1 | 38.6 | 0.00 | 0.00 | 0.00 | 30 | 1009.1 |
| 20260504202046 | 24 | 322 | 22.5 | 37.0 | 0.00 | 0.00 | 0.00 | 29 | 1009.1 |
| 20260504201557 | 24 | 311 | 19.3 | 40.2 | 0.00 | 0.00 | 0.00 | 27 | 1009.1 |
| 20260504201044 | 25 | 323 | 19.3 | 40.2 | 0.00 | 0.00 | 0.00 | 30 | 1009.2 |
| 20260504200542 | 25 | 312 | 22.5 | 33.8 | 0.00 | 0.00 | 0.00 | 27 | 1009.1 |
| 20260504200104 | 25 | 16 | 22.5 | 38.6 | 0.00 | 0.00 | 0.00 | 31 | 1009.3 |
| 20260504195544 | 25 | 336 | 19.3 | 38.6 | 0.00 | 0.00 | 0.00 | 31 | 1009.2 |
| 20260504195042 | 25 | 336 | 20.9 | 38.6 | 0.00 | 0.00 | 0.00 | 30 | 1009.2 |
| 20260504194557 | 24 | 303 | 24.1 | 35.4 | 0.00 | 0.00 | 0.00 | 30 | 1009.3 |
| 20260504194045 | 24 | 30 | 19.3 | 35.4 | 0.00 | 0.00 | 0.00 | 31 | 1009.3 |
| 20260504193543 | 24 | 333 | 19.3 | 33.8 | 0.00 | 0.00 | 0.00 | 31 | 1009.3 |
| 20260504193102 | 23 | 300 | 19.3 | 32.2 | 0.00 | 0.00 | 0.00 | 32 | 1009.4 |
| 20260504192541 | 23 | 290 | 20.9 | 32.2 | 0.00 | 0.00 | 0.00 | 30 | 1009.3 |
| 20260504192044 | 23 | 314 | 17.7 | 25.7 | 0.00 | 0.00 | 0.00 | 31 | 1009.5 |
| 20260504191612 | 24 | 360 | 12.9 | 27.4 | 0.00 | 0.00 | 0.00 | 31 | 1009.5 |
| 20260504191041 | 23 | 303 | 17.7 | 27.4 | 0.00 | 0.00 | 0.00 | 27 | 1009.5 |
| 20260504190541 | 24 | 5 | 16.1 | 25.7 | 0.00 | 0.00 | 0.00 | 33 | 1009.6 |
| 20260504190055 | 24 | 5 | 17.7 | 25.7 | 0.00 | 0.00 | 0.00 | 27 | 1009.5 |
| 20260504185542 | 23 | 13 | 11.3 | 29.0 | 0.00 | 0.00 | 0.00 | 33 | 1009.7 |
| 20260504185043 | 23 | 20 | 12.9 | 29.0 | 0.00 | 0.00 | 0.00 | 33 | 1009.8 |
| 20260504184552 | 23 | 15 | 14.5 | 25.7 | 0.00 | 0.00 | 0.00 | 33 | 1009.8 |